createdAt,value
2022-08-28T00:06:07.884Z,100440.66
2022-08-28T00:12:58.229Z,100446.25
2022-08-28T00:19:43.747Z,100448.63
2022-08-28T00:26:41.896Z,100444.25
2022-08-28T00:33:35.273Z,100428.94
2022-08-28T00:40:28.480Z,100444.56
2022-08-28T00:47:16.720Z,100444.94
2022-08-28T00:54:07.693Z,100438.06
2022-08-28T01:00:53.731Z,100426.00
2022-08-28T01:07:40.267Z,100441.63
2022-08-28T01:14:29.811Z,100436.44
2022-08-28T01:21:24.983Z,100453.22
2022-08-28T01:28:16.788Z,100443.97
2022-08-28T01:35:03.145Z,100420.22
2022-08-28T01:41:54.663Z,100436.78
2022-08-28T01:48:46.088Z,100452.06
2022-08-28T01:55:32.449Z,100444.06
2022-08-28T02:02:17.985Z,100457.25
2022-08-28T02:09:06.718Z,100388.88
2022-08-28T02:15:59.184Z,100427.44
2022-08-28T02:22:45.212Z,100432.28
2022-08-28T02:29:33.279Z,100455.25
2022-08-28T02:36:19.572Z,100468.50
2022-08-28T02:43:06.069Z,100467.38
2022-08-28T03:03:43.517Z,100463.00
2022-08-28T03:10:29.021Z,100466.63
2022-08-28T03:17:14.494Z,100470.22
2022-08-28T03:24:02.668Z,100416.31
2022-08-28T03:30:49.809Z,100458.06
2022-08-28T03:37:35.774Z,100457.97
2022-08-28T03:44:23.945Z,100457.09
2022-08-28T03:51:12.227Z,100457.41
2022-08-28T03:57:58.056Z,100461.34
2022-08-28T04:04:46.187Z,100469.63
2022-08-28T04:11:32.341Z,100426.56
2022-08-28T04:18:18.402Z,100465.63
2022-08-28T04:25:07.383Z,100477.59
2022-08-28T04:31:53.326Z,100479.56
2022-08-28T04:38:43.731Z,100486.28
2022-08-28T04:45:32.295Z,100471.78
2022-08-28T04:52:17.819Z,100492.91
2022-08-28T04:59:04.775Z,100483.66
2022-08-28T05:05:55.831Z,100492.38
2022-08-28T05:12:41.292Z,100500.00
2022-08-28T05:19:28.614Z,100512.06
2022-08-28T05:26:19.901Z,100470.97
2022-08-28T05:33:05.682Z,100519.59
2022-08-28T05:39:51.141Z,100523.91
2022-08-28T05:46:42.143Z,100521.81
2022-08-28T05:53:28.361Z,100531.03
2022-08-28T06:00:15.454Z,100536.31
2022-08-28T06:07:04.256Z,100530.03
2022-08-28T06:13:49.864Z,100543.31
2022-08-28T06:20:41.464Z,100538.53
2022-08-28T06:27:31.202Z,100518.03
2022-08-28T06:34:16.779Z,100552.88
2022-08-28T06:41:02.685Z,100543.19
2022-08-28T06:47:50.987Z,100554.66
2022-08-28T06:54:39.000Z,100554.22
2022-08-28T07:01:29.951Z,100551.75
2022-08-28T07:08:18.159Z,100560.22
2022-08-28T07:15:04.301Z,100577.44
2022-08-28T07:21:49.899Z,100574.78
2022-08-28T07:28:38.899Z,100572.81
2022-08-28T07:35:25.460Z,100581.28
2022-08-28T07:42:35.448Z,100577.84
2022-08-28T07:49:24.493Z,100575.91
2022-08-28T07:56:11.407Z,100594.97
2022-08-28T08:02:57.329Z,100605.84
2022-08-28T08:09:46.820Z,100595.13
2022-08-28T08:16:33.532Z,100594.84
2022-08-28T08:23:18.962Z,100603.44
2022-08-28T08:30:08.213Z,100597.13
2022-08-28T08:36:54.263Z,100607.31
2022-08-28T08:43:58.845Z,100606.91
2022-08-28T08:50:46.941Z,100604.56
2022-08-28T08:57:34.392Z,100608.59
2022-08-28T09:04:39.852Z,100607.44
2022-08-28T09:11:44.229Z,100610.72
2022-08-28T09:18:35.848Z,100547.63
2022-08-28T09:25:59.719Z,100622.50
2022-08-28T09:33:02.774Z,100621.34
2022-08-28T09:39:49.004Z,100602.47
2022-08-28T09:46:39.167Z,100624.22
2022-08-28T09:53:29.195Z,100617.81
2022-08-28T10:00:16.228Z,100615.78
2022-08-28T10:07:09.428Z,100622.25
2022-08-28T10:14:13.172Z,100612.16
2022-08-28T10:21:07.965Z,100615.34
2022-08-28T10:28:25.460Z,100607.28
2022-08-28T10:35:21.329Z,100599.25
2022-08-28T10:42:10.437Z,100610.84
2022-08-28T10:49:03.149Z,100514.03
2022-08-28T10:56:02.743Z,100593.41
2022-08-28T11:02:54.071Z,100600.16
2022-08-28T11:09:41.923Z,100565.53
2022-08-28T11:16:42.034Z,100507.63
2022-08-28T11:23:45.927Z,100589.31
2022-08-28T11:30:36.695Z,100591.34
2022-08-28T11:37:44.452Z,100557.66
2022-08-28T11:44:43.257Z,100506.28
2022-08-28T11:52:03.144Z,100597.69
2022-08-28T11:59:02.302Z,100597.66
2022-08-28T12:05:58.582Z,100587.88
2022-08-28T12:12:57.083Z,100592.59
2022-08-28T12:19:55.215Z,100590.97
2022-08-28T12:26:48.726Z,100590.88
2022-08-28T12:33:41.561Z,100574.28
2022-08-28T12:40:35.074Z,100581.53
2022-08-28T12:47:25.773Z,100579.84
2022-08-28T12:54:12.273Z,100574.19
2022-08-28T13:01:04.041Z,100563.81
2022-08-28T13:07:54.492Z,100574.16
2022-08-28T13:14:46.312Z,100558.72
2022-08-28T13:21:38.581Z,100552.19
2022-08-28T13:28:24.645Z,100544.38
2022-08-28T13:35:38.805Z,100538.22
2022-08-28T13:42:26.865Z,100536.31
2022-08-28T13:49:12.352Z,100539.72
2022-08-28T13:56:00.126Z,100540.75
2022-08-28T14:03:02.036Z,100539.28
2022-08-28T14:09:47.560Z,100529.31
2022-08-28T14:16:35.457Z,100536.72
2022-08-28T14:23:27.292Z,100522.84
2022-08-28T14:30:14.404Z,100516.00
2022-08-28T14:37:02.060Z,100533.22
2022-08-28T14:43:50.833Z,100529.59
2022-08-28T14:50:36.361Z,100529.50
2022-08-28T14:57:22.248Z,100520.88
2022-08-28T15:04:14.047Z,100519.56
2022-08-28T15:10:59.715Z,100477.56
2022-08-28T15:17:45.213Z,100512.97
2022-08-28T15:24:36.072Z,100515.06
2022-08-28T15:31:22.595Z,100503.25
2022-08-28T15:38:09.869Z,100496.28
2022-08-28T15:44:57.956Z,100491.81
2022-08-28T15:51:44.272Z,100506.44
2022-08-28T15:58:31.385Z,100504.41
2022-08-28T16:05:19.998Z,100494.25
2022-08-28T16:12:08.007Z,100498.81
2022-08-28T16:18:53.506Z,100512.16
2022-08-28T16:25:42.175Z,100492.63
2022-08-28T16:32:27.746Z,100513.06
2022-08-28T16:39:13.276Z,100514.72
2022-08-28T16:46:02.080Z,100499.03
2022-08-28T16:52:47.668Z,100492.94
2022-08-28T16:59:33.386Z,100501.81
2022-08-28T17:06:28.890Z,100421.44
2022-08-28T17:13:14.720Z,100500.56
2022-08-28T17:20:00.540Z,100466.25
2022-08-28T17:26:51.091Z,100486.56
2022-08-28T17:33:36.636Z,100493.03
2022-08-28T17:40:22.759Z,100496.03
2022-08-28T17:47:11.984Z,100507.03
2022-08-28T17:53:58.102Z,100507.56
2022-08-28T18:00:44.473Z,100509.69
2022-08-28T18:07:32.490Z,100521.91
2022-08-28T18:14:18.270Z,100525.97
2022-08-28T18:21:04.771Z,100525.59
2022-08-28T18:27:53.377Z,100530.06
2022-08-28T18:34:39.167Z,100529.28
2022-08-28T18:41:32.636Z,100477.47
2022-08-28T18:48:33.619Z,100519.13
2022-08-28T18:55:19.146Z,100564.53
2022-08-28T19:02:05.459Z,100576.34
2022-08-28T19:08:53.746Z,100572.28
2022-08-28T19:15:40.298Z,100596.59
2022-08-28T19:22:26.656Z,100550.75
2022-08-28T19:29:19.107Z,100606.25
2022-08-28T19:36:05.287Z,100607.69
2022-08-28T19:42:51.373Z,100631.56
2022-08-28T19:49:39.400Z,100579.22
2022-08-28T19:56:27.082Z,100646.41
2022-08-28T20:03:13.536Z,100642.56
2022-08-28T20:10:02.409Z,100660.34
2022-08-28T20:16:51.300Z,100656.06
2022-08-28T20:23:36.981Z,100675.47
2022-08-28T20:30:25.496Z,100635.78
2022-08-28T20:37:11.514Z,100678.00
2022-08-28T20:43:57.164Z,100672.84
2022-08-28T20:50:45.328Z,100682.13
2022-08-28T20:57:30.823Z,100687.34
2022-08-28T21:04:16.408Z,100689.38
2022-08-28T21:11:05.562Z,100690.19
2022-08-28T21:17:51.055Z,100699.00
2022-08-28T21:24:36.636Z,100710.22
2022-08-28T21:31:24.589Z,100711.44
2022-08-28T21:38:10.448Z,100712.56
2022-08-28T21:44:59.621Z,100643.31
2022-08-28T21:51:47.829Z,100673.78
2022-08-28T21:58:33.757Z,100736.91
2022-08-28T22:05:21.410Z,100732.06
2022-08-28T22:12:10.885Z,100741.59
2022-08-28T22:18:56.878Z,100735.09
2022-08-28T22:25:44.847Z,100637.84
2022-08-28T22:32:33.427Z,100696.09
2022-08-28T22:39:18.952Z,100691.41
2022-08-28T22:46:04.788Z,100754.09
2022-08-28T22:52:53.488Z,100738.41
2022-08-28T22:59:39.066Z,100705.78
2022-08-28T23:06:24.580Z,100745.56
2022-08-28T23:13:14.318Z,100747.38
2022-08-28T23:20:00.452Z,100754.03
2022-08-28T23:26:48.940Z,100749.06
2022-08-28T23:33:37.096Z,100752.28
2022-08-28T23:40:25.846Z,100743.94
2022-08-28T23:47:14.181Z,100722.22
2022-08-28T23:54:02.428Z,100702.91
